Погода Итау-ди-Минасна неделю

Минас-Жерайс, Бразилия

23 - 29 июля
  • 23июля
    Сегодня
    +13°
    +28°
    Ясно и безоблачно
    ВремяПогодаТемператураВлажностьДавлениеВетер, м/сВероятность осадков
    00:00Ясно и безоблачно+15°C62 %695 мм2.3 м/с5 %
    03:00Ясно и безоблачно+14°C62 %695 мм2.0 м/с5 %
    06:00Ясно и безоблачно+13°C76 %695 мм2.4 м/с5 %
    09:00Ясно и безоблачно+19°C54 %698 мм1.6 м/с5 %
    12:00Ясно и безоблачно+25°C31 %698 мм2.3 м/с5 %
    15:00Ясно и безоблачно+27°C21 %697 мм3.2 м/с5 %
    18:00Ясно и безоблачно+23°C36 %696 мм2.4 м/с5 %
    21:00Ясно и безоблачно+18°C42 %696 мм2.7 м/с5 %
  • 24июля
    Среда
    +13°
    +27°
    Небольшая облачность
    ВремяПогодаТемператураВлажностьДавлениеВетер, м/сВероятность осадков
    00:00Ясно и безоблачно+16°C59 %696 мм2.3 м/с5 %
    03:00Практически безоблачно+16°C58 %695 мм3.7 м/с5 %
    06:00Ясно и безоблачно+14°C67 %695 мм3.5 м/с5 %
    09:00Практически безоблачно+19°C53 %698 мм3.6 м/с5 %
    12:00Облачно с прояснениями+24°C40 %698 мм3.5 м/с5 %
    15:00Небольшая облачность+27°C32 %696 мм2.5 м/с5 %
    18:00Ясно и безоблачно+23°C49 %696 мм2.0 м/с5 %
    21:00Небольшая облачность+20°C49 %696 мм3.0 м/с5 %
  • 25июля
    Четверг
    +12°
    +28°
    Ясно и безоблачно
    ВремяПогодаТемператураВлажностьДавлениеВетер, м/сВероятность осадков
    00:00Облачно с прояснениями+17°C63 %696 мм2.2 м/с5 %
    03:00Ясно и безоблачно+14°C70 %694 мм1.7 м/с5 %
    06:00Ясно и безоблачно+14°C77 %695 мм2.5 м/с5 %
    09:00Ясно и безоблачно+19°C57 %697 мм2.4 м/с5 %
    12:00Ясно и безоблачно+25°C36 %697 мм1.9 м/с5 %
    15:00Ясно и безоблачно+28°C29 %695 мм1.2 м/с5 %
    18:00Ясно и безоблачно+25°C39 %694 мм1.5 м/с5 %
    21:00Ясно и безоблачно+20°C50 %694 мм2.4 м/с5 %
  • 26июля
    Пятница
    +13°
    +28°
    Небольшая облачность
    ВремяПогодаТемператураВлажностьДавлениеВетер, м/сВероятность осадков
    00:00Ясно и безоблачно+17°C55 %694 мм2.0 м/с5 %
    03:00Ясно и безоблачно+14°C67 %693 мм2.2 м/с5 %
    06:00Ясно и безоблачно+13°C74 %692 мм1.7 м/с5 %
    09:00Небольшая облачность+20°C49 %696 мм1.8 м/с5 %
    12:00Облачно с прояснениями+25°C34 %696 мм2.2 м/с5 %
    15:00Небольшая облачность+28°C29 %695 мм1.9 м/с5 %
    18:00Облачно с прояснениями+24°C40 %694 мм2.4 м/с5 %
    21:00Небольшая облачность+21°C42 %694 мм2.6 м/с5 %
  • 27июля
    Суббота
    +13°
    +29°
    Небольшая облачность
    ВремяПогодаТемператураВлажностьДавлениеВетер, м/сВероятность осадков
    00:00Небольшая облачность+18°C52 %694 мм2.0 м/с5 %
    03:00Небольшая облачность+15°C60 %693 мм1.8 м/с5 %
    06:00Облачно с прояснениями+14°C62 %693 мм2.5 м/с5 %
    09:00Облачно с прояснениями+20°C48 %696 мм1.8 м/с5 %
    12:00Облачно с прояснениями+26°C32 %696 мм2.2 м/с5 %
    15:00Небольшая облачность+29°C23 %695 мм1.4 м/с5 %
    18:00Ясно и безоблачно+24°C36 %694 мм2.2 м/с5 %
    21:00Ясно и безоблачно+22°C41 %695 мм2.6 м/с5 %
Мы используем cookies
Соглашаюсь